Luderitz Diaz Point, Namibia
Current Conditions -  °F | °C
As of 10:00 AM on Sunday 26 Oct 2014 (Local Time) from FYWE Reporting Station
Clear Clear  
Wind Chill: 84°   Ceiling: Unl
Heat Index: 84°   Visibility: 6mi
Dew Point: 28°   Wind: 14mph
Humidity: 13%   Direction: 70°ENE
Pressure: 30.18"   Gusts: NA
Location:  26.63°S, 15.1°E
Report Text: FYWE 260900Z 07012KT CAVOK 29/M02 Q1022
Loading
Personal Weather Stations






























Interactive Weather Map
Tropical Storm Tracking
New forecast layout! Learn more

10-Day Weather Forecast

Advertisements
Track Severe Weather on mobile